createdAt,value
2022-08-28T00:00:30.857Z,70.55
2022-08-28T00:02:58.924Z,70.57
2022-08-28T00:05:31.641Z,70.84
2022-08-28T00:08:00.368Z,70.95
2022-08-28T00:10:28.697Z,71.12
2022-08-28T00:12:57.469Z,71.22
2022-08-28T00:15:33.596Z,71.52
2022-08-28T00:18:03.697Z,71.60
2022-08-28T00:20:33.527Z,71.64
2022-08-28T00:23:01.686Z,71.97
2022-08-28T00:25:30.897Z,72.08
2022-08-28T00:28:08.585Z,72.05
2022-08-28T00:30:43.797Z,72.24
2022-08-28T00:33:18.138Z,72.50
2022-08-28T00:35:47.949Z,72.63
2022-08-28T00:38:19.255Z,72.97
2022-08-28T00:40:52.355Z,73.30
2022-08-28T00:43:33.917Z,73.42
2022-08-28T00:46:09.598Z,73.18
2022-08-28T00:48:38.076Z,73.23
2022-08-28T00:51:25.864Z,73.25
2022-08-28T00:53:58.821Z,73.21
2022-08-28T00:56:29.868Z,73.23
2022-08-28T00:59:03.582Z,73.63
2022-08-28T01:01:31.296Z,73.83
2022-08-28T01:03:58.850Z,73.78
2022-08-28T01:06:26.337Z,74.15
2022-08-28T01:08:54.462Z,73.95
2022-08-28T01:11:21.903Z,74.26
2022-08-28T01:13:51.194Z,74.62
2022-08-28T01:16:22.575Z,74.71
2022-08-28T01:18:55.251Z,74.78
2022-08-28T01:21:58.618Z,74.75
2022-08-28T01:24:27.356Z,74.87
2022-08-28T01:26:54.791Z,74.90
2022-08-28T01:29:24.278Z,74.89
2022-08-28T01:31:51.741Z,75.35
2022-08-28T01:34:19.203Z,75.41
2022-08-28T01:36:48.432Z,75.61
2022-08-28T01:39:22.260Z,75.61
2022-08-28T01:41:54.595Z,75.74
2022-08-28T01:44:26.286Z,76.17
2022-08-28T01:46:57.095Z,75.17
2022-08-28T01:49:29.218Z,75.72
2022-08-28T01:51:58.326Z,75.97
2022-08-28T01:54:28.722Z,76.18
2022-08-28T01:56:56.482Z,76.26
2022-08-28T01:59:24.008Z,76.56
2022-08-28T02:01:52.506Z,76.85
2022-08-28T02:04:19.991Z,77.28
2022-08-28T02:06:53.410Z,77.24
2022-08-28T02:09:20.883Z,77.59
2022-08-28T02:11:48.352Z,77.74
2022-08-28T02:14:16.572Z,78.25
2022-08-28T02:16:44.084Z,78.41
2022-08-28T02:19:12.147Z,78.07
2022-08-28T02:21:40.284Z,78.25
2022-08-28T02:24:08.664Z,78.23
2022-08-28T02:26:36.147Z,78.42
2022-08-28T02:29:04.818Z,78.67
2022-08-28T02:31:32.494Z,78.40
2022-08-28T02:34:01.009Z,78.97
2022-08-28T02:36:29.050Z,78.75
2022-08-28T02:38:57.907Z,78.91
2022-08-28T02:41:26.176Z,78.89
2022-08-28T02:43:54.514Z,78.66
2022-08-28T02:46:21.975Z,78.63
2022-08-28T02:48:50.431Z,78.63
2022-08-28T02:51:19.985Z,78.46
2022-08-28T02:53:47.758Z,79.02
2022-08-28T02:56:15.392Z,78.79
2022-08-28T02:58:44.570Z,78.93
2022-08-28T03:01:14.724Z,79.22
2022-08-28T03:03:43.185Z,79.17
2022-08-28T03:06:12.881Z,79.66
2022-08-28T03:08:43.580Z,79.67
2022-08-28T03:11:12.029Z,79.25
2022-08-28T03:13:39.570Z,79.91
2022-08-28T03:16:07.410Z,79.47
2022-08-28T03:18:35.116Z,79.67
2022-08-28T03:21:03.213Z,80.00
2022-08-28T03:23:31.955Z,79.66
2022-08-28T03:26:04.888Z,79.42
2022-08-28T03:28:40.751Z,79.97
2022-08-28T03:31:12.428Z,79.92
2022-08-28T03:33:42.717Z,79.74
2022-08-28T03:36:13.611Z,79.99
2022-08-28T03:38:41.980Z,80.05
2022-08-28T03:41:17.120Z,80.47
2022-08-28T03:43:45.425Z,80.02
2022-08-28T03:46:20.663Z,80.42
2022-08-28T03:48:48.137Z,80.08
2022-08-28T03:51:27.971Z,80.27
2022-08-28T03:53:59.733Z,80.62
2022-08-28T03:56:30.493Z,80.93
2022-08-28T03:59:02.274Z,81.24
2022-08-28T04:01:29.822Z,80.63
2022-08-28T04:03:57.363Z,80.75
2022-08-28T04:06:25.409Z,80.77
2022-08-28T04:08:52.844Z,81.52
2022-08-28T04:11:20.593Z,81.34
2022-08-28T04:13:48.151Z,81.52
2022-08-28T04:16:19.159Z,81.43
2022-08-28T04:18:49.909Z,81.79
2022-08-28T04:21:23.793Z,81.73
2022-08-28T04:23:51.725Z,81.82
2022-08-28T04:26:23.096Z,81.54
2022-08-28T04:28:52.620Z,82.03
2022-08-28T04:31:31.852Z,81.74
2022-08-28T04:34:06.858Z,81.86
2022-08-28T04:36:35.881Z,82.09
2022-08-28T04:39:08.551Z,82.23
2022-08-28T04:41:38.684Z,82.15
2022-08-28T04:44:07.856Z,82.42
2022-08-28T04:46:37.241Z,82.49
2022-08-28T04:49:05.795Z,82.46
2022-08-28T04:51:33.730Z,82.19
2022-08-28T04:54:03.458Z,82.13
2022-08-28T04:56:31.031Z,82.14
2022-08-28T04:59:01.520Z,82.70
2022-08-28T05:01:29.150Z,82.50
2022-08-28T05:04:02.173Z,82.43
2022-08-28T05:06:33.032Z,82.41
2022-08-28T05:09:03.722Z,82.32
2022-08-28T05:11:34.452Z,82.54
2022-08-28T05:14:09.625Z,82.59
2022-08-28T05:16:52.763Z,82.33
2022-08-28T05:19:21.191Z,82.31
2022-08-28T05:21:48.794Z,82.55
2022-08-28T05:24:18.818Z,82.24
2022-08-28T05:26:47.955Z,82.72
2022-08-28T05:29:17.003Z,82.22
2022-08-28T05:31:46.427Z,82.58
2022-08-28T05:34:15.246Z,82.23
2022-08-28T05:36:42.773Z,82.19
2022-08-28T05:39:11.812Z,82.35
2022-08-28T05:41:44.980Z,82.33
2022-08-28T05:44:16.576Z,82.42
2022-08-28T05:46:48.059Z,81.46
2022-08-28T05:49:18.991Z,81.71
2022-08-28T05:51:47.895Z,82.14
2022-08-28T05:54:16.777Z,82.34
2022-08-28T05:56:46.265Z,82.18
2022-08-28T05:59:15.959Z,82.08
2022-08-28T06:01:49.078Z,82.55
2022-08-28T06:04:24.557Z,82.73
2022-08-28T06:06:52.160Z,82.30
2022-08-28T06:09:29.598Z,82.50
2022-08-28T06:12:01.920Z,82.58
2022-08-28T06:14:31.273Z,82.32
2022-08-28T06:17:04.017Z,81.96
2022-08-28T06:19:37.233Z,82.46
2022-08-28T06:22:07.788Z,82.36
2022-08-28T06:24:36.306Z,83.33
2022-08-28T06:27:04.739Z,82.28
2022-08-28T06:29:32.257Z,83.00
2022-08-28T06:32:04.747Z,82.04
2022-08-28T06:34:32.498Z,81.95
2022-08-28T06:37:00.597Z,82.43
2022-08-28T06:39:28.049Z,81.65
2022-08-28T06:41:55.520Z,81.73
2022-08-28T06:44:23.029Z,81.51
2022-08-28T06:46:54.344Z,81.83
2022-08-28T06:49:22.618Z,80.16
2022-08-28T06:51:50.705Z,80.09
2022-08-28T06:54:22.992Z,80.14
2022-08-28T06:56:52.790Z,79.13
2022-08-28T06:59:20.288Z,78.68
2022-08-28T07:01:48.277Z,77.67
2022-08-28T07:04:15.907Z,77.67
2022-08-28T07:06:53.752Z,76.80
2022-08-28T07:09:24.246Z,76.30
2022-08-28T07:11:52.676Z,75.55
2022-08-28T07:14:20.264Z,74.02
2022-08-28T07:16:47.858Z,73.90
2022-08-28T07:19:15.741Z,73.31
2022-08-28T07:21:45.669Z,72.82
2022-08-28T07:24:16.028Z,72.66
2022-08-28T07:26:45.841Z,71.63
2022-08-28T07:29:14.349Z,71.40
2022-08-28T07:31:48.590Z,69.76
2022-08-28T07:34:21.026Z,69.18
2022-08-28T07:36:51.883Z,68.99
2022-08-28T07:39:19.805Z,68.68
2022-08-28T07:41:47.952Z,67.39
2022-08-28T07:44:36.431Z,66.48
2022-08-28T07:47:06.494Z,66.61
2022-08-28T07:49:36.360Z,66.42
2022-08-28T07:52:06.645Z,65.25
2022-08-28T07:54:36.013Z,65.32
2022-08-28T07:57:05.565Z,65.96
2022-08-28T07:59:36.822Z,65.24
2022-08-28T08:02:05.998Z,65.13
2022-08-28T08:04:33.887Z,66.12
2022-08-28T08:07:03.372Z,65.39
2022-08-28T08:09:30.973Z,66.32
2022-08-28T08:12:00.003Z,64.26
2022-08-28T08:14:28.198Z,64.55
2022-08-28T08:16:55.589Z,64.77
2022-08-28T08:19:23.163Z,63.24
2022-08-28T08:21:54.594Z,63.13
2022-08-28T08:24:28.359Z,63.03
2022-08-28T08:27:00.908Z,62.38
2022-08-28T08:29:36.978Z,61.44
2022-08-28T08:32:10.662Z,60.80
2022-08-28T08:34:42.649Z,60.67
2022-08-28T08:37:11.651Z,60.65
2022-08-28T08:39:42.072Z,60.04
2022-08-28T08:42:25.427Z,59.23
2022-08-28T08:44:56.355Z,59.34
2022-08-28T08:47:51.338Z,60.44
2022-08-28T08:50:25.673Z,61.14
2022-08-28T08:53:21.393Z,61.55
2022-08-28T08:55:53.342Z,61.09
2022-08-28T08:58:45.487Z,59.83
2022-08-28T09:01:28.886Z,59.99
2022-08-28T09:04:16.518Z,60.00
2022-08-28T09:07:19.796Z,59.62
2022-08-28T09:09:57.307Z,59.73
2022-08-28T09:12:34.805Z,58.64
2022-08-28T09:15:17.434Z,57.13
2022-08-28T09:17:53.537Z,57.71
2022-08-28T09:20:32.875Z,56.86
2022-08-28T09:23:02.136Z,56.82
2022-08-28T09:25:51.719Z,56.85
2022-08-28T09:28:40.753Z,56.82
2022-08-28T09:31:31.913Z,55.76
2022-08-28T09:34:31.836Z,55.72
2022-08-28T09:37:02.418Z,56.49
2022-08-28T09:39:33.811Z,56.10
2022-08-28T09:42:41.320Z,56.55
2022-08-28T09:45:24.178Z,55.03
2022-08-28T09:47:56.056Z,54.84
2022-08-28T09:50:37.110Z,53.97
2022-08-28T09:53:10.481Z,53.43
2022-08-28T09:55:56.005Z,53.75
2022-08-28T09:58:35.483Z,52.73
2022-08-28T10:01:19.089Z,52.21
2022-08-28T10:04:17.546Z,51.76
2022-08-28T10:07:09.239Z,51.32
2022-08-28T10:09:40.131Z,52.56
2022-08-28T10:12:50.423Z,52.47
2022-08-28T10:15:59.535Z,51.63
2022-08-28T10:18:48.277Z,51.29
2022-08-28T10:21:26.770Z,51.57
2022-08-28T10:24:29.222Z,50.69
2022-08-28T10:27:43.301Z,49.92
2022-08-28T10:30:19.346Z,50.94
2022-08-28T10:33:25.882Z,51.00
2022-08-28T10:36:33.998Z,50.73
2022-08-28T10:39:45.701Z,51.14
2022-08-28T10:42:30.198Z,51.28
2022-08-28T10:45:14.373Z,51.65
2022-08-28T10:47:50.902Z,52.16
2022-08-28T10:50:41.218Z,51.90
2022-08-28T10:53:23.191Z,52.03
2022-08-28T10:56:02.966Z,51.58
2022-08-28T10:58:37.044Z,51.05
2022-08-28T11:01:28.555Z,51.01
2022-08-28T11:04:01.001Z,51.15
2022-08-28T11:06:31.795Z,50.09
2022-08-28T11:09:24.789Z,50.24
2022-08-28T11:12:10.210Z,49.37
2022-08-28T11:14:48.497Z,49.54
2022-08-28T11:17:22.159Z,49.53
2022-08-28T11:20:25.028Z,48.20
2022-08-28T11:23:10.444Z,47.75
2022-08-28T11:25:54.725Z,46.72
2022-08-28T11:28:24.787Z,47.75
2022-08-28T11:31:05.441Z,47.84
2022-08-28T11:33:50.510Z,47.22
2022-08-28T11:36:40.718Z,47.42
2022-08-28T11:39:14.113Z,47.51
2022-08-28T11:42:36.221Z,47.39
2022-08-28T11:45:04.658Z,45.90
2022-08-28T11:47:43.629Z,46.37
2022-08-28T11:50:18.270Z,46.10
2022-08-28T11:53:24.960Z,46.20
2022-08-28T11:56:38.524Z,46.57
2022-08-28T11:59:45.199Z,45.29
2022-08-28T12:02:44.175Z,44.79
2022-08-28T12:05:14.575Z,44.60
2022-08-28T12:07:49.417Z,44.31
2022-08-28T12:10:22.922Z,44.85
2022-08-28T12:12:54.110Z,45.22
2022-08-28T12:15:27.586Z,45.27
2022-08-28T12:18:11.748Z,43.97
2022-08-28T12:21:01.283Z,45.01
2022-08-28T12:23:37.804Z,44.57
2022-08-28T12:26:13.249Z,43.92
2022-08-28T12:28:52.576Z,44.29
2022-08-28T12:31:47.500Z,43.79
2022-08-28T12:34:43.570Z,44.44
2022-08-28T12:37:51.856Z,43.85
2022-08-28T12:40:52.940Z,44.13
2022-08-28T12:43:46.290Z,43.95
2022-08-28T12:46:28.859Z,43.35
2022-08-28T12:49:03.177Z,43.43
2022-08-28T12:51:37.531Z,42.65
2022-08-28T12:54:08.728Z,43.18
2022-08-28T12:56:38.563Z,43.79
2022-08-28T12:59:37.822Z,43.79
2022-08-28T13:02:08.221Z,43.48
2022-08-28T13:05:09.543Z,43.39
2022-08-28T13:07:51.833Z,42.82
2022-08-28T13:10:29.766Z,42.56
2022-08-28T13:13:18.794Z,42.74
2022-08-28T13:16:00.716Z,42.73
2022-08-28T13:19:10.696Z,42.24
2022-08-28T13:22:00.383Z,42.64
2022-08-28T13:24:44.603Z,42.25
2022-08-28T13:27:12.091Z,41.37
2022-08-28T13:30:01.189Z,41.77
2022-08-28T13:32:33.165Z,41.65
2022-08-28T13:35:22.311Z,41.61
2022-08-28T13:37:54.255Z,41.40
2022-08-28T13:43:17.051Z,40.64
2022-08-28T13:45:48.659Z,41.42
2022-08-28T13:48:21.526Z,41.28
2022-08-28T13:51:11.994Z,40.59
2022-08-28T13:53:43.947Z,41.14
2022-08-28T13:56:12.259Z,41.22
2022-08-28T13:58:39.720Z,40.90
2022-08-28T14:01:07.393Z,41.33
2022-08-28T14:03:38.824Z,41.19
2022-08-28T14:06:14.735Z,41.35
2022-08-28T14:08:44.489Z,41.63
2022-08-28T14:11:15.167Z,41.53
2022-08-28T14:13:46.948Z,41.79
2022-08-28T14:16:25.916Z,41.63
2022-08-28T14:18:53.877Z,41.65
2022-08-28T14:21:24.626Z,41.70
2022-08-28T14:23:52.200Z,41.55
2022-08-28T14:26:26.465Z,40.99
2022-08-28T14:28:54.273Z,40.39
2022-08-28T14:31:25.543Z,39.89
2022-08-28T14:33:54.995Z,39.78
2022-08-28T14:36:27.810Z,40.55
2022-08-28T14:39:01.779Z,40.12
2022-08-28T14:41:34.622Z,39.98
2022-08-28T14:44:04.886Z,38.93
2022-08-28T14:46:37.676Z,39.88
2022-08-28T14:49:09.697Z,39.37
2022-08-28T14:51:41.473Z,38.91
2022-08-28T14:54:12.125Z,38.77
2022-08-28T14:56:43.124Z,38.64
2022-08-28T14:59:19.498Z,38.13
2022-08-28T15:01:50.403Z,38.30
2022-08-28T15:04:22.813Z,38.63
2022-08-28T15:06:58.607Z,38.58
2022-08-28T15:09:26.443Z,38.58
2022-08-28T15:11:55.103Z,38.86
2022-08-28T15:14:22.565Z,39.45
2022-08-28T15:16:50.145Z,39.24
2022-08-28T15:19:18.603Z,39.69
2022-08-28T15:21:53.855Z,39.73
2022-08-28T15:24:27.953Z,40.07
2022-08-28T15:26:56.864Z,39.20
2022-08-28T15:29:24.412Z,38.89
2022-08-28T15:31:52.862Z,39.02
2022-08-28T15:34:24.962Z,38.56
2022-08-28T15:36:55.741Z,38.03
2022-08-28T15:39:45.639Z,37.59
2022-08-28T15:42:14.610Z,38.27
2022-08-28T15:44:43.924Z,38.25
2022-08-28T15:47:13.758Z,38.13
2022-08-28T15:49:46.721Z,39.01
2022-08-28T15:52:18.858Z,39.55
2022-08-28T15:54:48.006Z,39.30
2022-08-28T15:57:16.035Z,39.19
2022-08-28T15:59:49.815Z,39.77
2022-08-28T16:02:21.905Z,38.43
2022-08-28T16:04:50.177Z,39.50
2022-08-28T16:07:20.750Z,39.29
2022-08-28T16:09:48.468Z,38.84
2022-08-28T16:12:16.821Z,39.30
2022-08-28T16:14:44.786Z,39.12
2022-08-28T16:17:12.522Z,39.42
2022-08-28T16:19:40.923Z,39.68
2022-08-28T16:22:11.045Z,39.49
2022-08-28T16:24:39.091Z,39.33
2022-08-28T16:27:09.525Z,38.72
2022-08-28T16:29:38.929Z,37.77
2022-08-28T16:32:07.012Z,38.11
2022-08-28T16:34:35.258Z,36.94
2022-08-28T16:37:04.643Z,37.51
2022-08-28T16:39:32.198Z,36.78
2022-08-28T16:41:59.744Z,37.08
2022-08-28T16:44:27.373Z,36.08
2022-08-28T16:46:55.955Z,36.99
2022-08-28T16:49:24.734Z,36.39
2022-08-28T16:51:52.531Z,35.82
2022-08-28T16:54:21.711Z,36.54
2022-08-28T16:56:49.311Z,36.50
2022-08-28T16:59:18.209Z,35.14
2022-08-28T17:01:47.342Z,35.02
2022-08-28T17:04:21.093Z,35.65
2022-08-28T17:06:48.924Z,35.64
2022-08-28T17:09:16.472Z,35.78
2022-08-28T17:11:45.564Z,35.83
2022-08-28T17:14:21.659Z,36.16
2022-08-28T17:16:50.589Z,36.52
2022-08-28T17:19:19.407Z,36.64
2022-08-28T17:22:05.285Z,37.03
2022-08-28T17:24:32.850Z,37.75
2022-08-28T17:27:05.251Z,37.44
2022-08-28T17:29:36.293Z,37.20
2022-08-28T17:32:05.731Z,38.17
2022-08-28T17:34:33.553Z,37.81
2022-08-28T17:37:01.485Z,37.93
2022-08-28T17:39:29.657Z,38.08
2022-08-28T17:41:57.614Z,37.74
2022-08-28T17:44:25.549Z,38.55
2022-08-28T17:46:54.055Z,38.69
2022-08-28T17:49:22.501Z,38.42
2022-08-28T17:51:51.100Z,38.63
2022-08-28T17:54:24.043Z,39.18
2022-08-28T17:56:54.344Z,39.59
2022-08-28T17:59:24.409Z,39.41
2022-08-28T18:01:53.403Z,40.26
2022-08-28T18:04:24.389Z,40.44
2022-08-28T18:06:54.484Z,40.40
2022-08-28T18:09:24.179Z,40.76
2022-08-28T18:11:52.657Z,41.45
2022-08-28T18:14:20.893Z,41.96
2022-08-28T18:16:48.481Z,42.02
2022-08-28T18:19:16.492Z,42.56
2022-08-28T18:21:44.905Z,42.60
2022-08-28T18:24:13.135Z,42.46
2022-08-28T18:26:42.996Z,43.13
2022-08-28T18:29:11.815Z,43.75
2022-08-28T18:31:40.885Z,44.23
2022-08-28T18:34:09.871Z,44.03
2022-08-28T18:36:39.890Z,44.26
2022-08-28T18:39:08.224Z,43.94
2022-08-28T18:41:43.957Z,44.66
2022-08-28T18:44:15.257Z,44.58
2022-08-28T18:46:44.088Z,45.17
2022-08-28T18:49:12.616Z,45.59
2022-08-28T18:51:43.402Z,45.87
2022-08-28T18:54:14.525Z,46.09
2022-08-28T18:56:46.025Z,46.30
2022-08-28T18:59:15.915Z,46.27
2022-08-28T19:01:43.585Z,46.35
2022-08-28T19:04:11.152Z,46.50
2022-08-28T19:06:41.373Z,46.90
2022-08-28T19:09:09.011Z,47.27
2022-08-28T19:11:39.223Z,47.42
2022-08-28T19:14:08.432Z,48.17
2022-08-28T19:16:35.893Z,48.01
2022-08-28T19:19:04.560Z,48.33
2022-08-28T19:21:32.567Z,48.83
2022-08-28T19:24:00.367Z,48.81
2022-08-28T19:26:28.625Z,49.41
2022-08-28T19:28:57.015Z,49.57
2022-08-28T19:31:27.022Z,49.77
2022-08-28T19:33:55.441Z,50.35
2022-08-28T19:36:22.978Z,50.85
2022-08-28T19:38:50.712Z,50.64
2022-08-28T19:41:18.220Z,51.48
2022-08-28T19:43:45.661Z,51.71
2022-08-28T19:46:19.240Z,51.42
2022-08-28T19:48:50.740Z,51.92
2022-08-28T19:51:23.077Z,51.86
2022-08-28T19:53:57.833Z,52.31
2022-08-28T19:56:28.731Z,52.70
2022-08-28T19:58:59.103Z,53.05
2022-08-28T20:01:29.973Z,53.33
2022-08-28T20:03:59.178Z,53.48
2022-08-28T20:06:30.233Z,53.76
2022-08-28T20:08:57.955Z,54.25
2022-08-28T20:11:30.247Z,54.41
2022-08-28T20:14:05.837Z,54.40
2022-08-28T20:16:42.346Z,54.75
2022-08-28T20:19:12.445Z,55.22
2022-08-28T20:21:47.020Z,55.67
2022-08-28T20:24:18.469Z,55.65
2022-08-28T20:26:46.732Z,55.68
2022-08-28T20:29:15.578Z,56.16
2022-08-28T20:31:47.891Z,56.05
2022-08-28T20:34:18.575Z,56.78
2022-08-28T20:36:46.382Z,56.66
2022-08-28T20:39:15.444Z,56.44
2022-08-28T20:41:44.365Z,57.10
2022-08-28T20:44:16.157Z,57.65
2022-08-28T20:46:43.860Z,57.47
2022-08-28T20:49:17.001Z,56.97
2022-08-28T20:51:57.659Z,57.28
2022-08-28T20:54:36.912Z,57.32
2022-08-28T20:57:12.202Z,57.61
2022-08-28T20:59:42.511Z,58.03
2022-08-28T21:02:23.831Z,58.26
2022-08-28T21:04:52.502Z,58.35
2022-08-28T21:07:23.298Z,58.56
2022-08-28T21:10:05.396Z,58.86
2022-08-28T21:12:39.953Z,59.21
2022-08-28T21:15:12.497Z,59.21
2022-08-28T21:17:40.979Z,59.73
2022-08-28T21:20:13.767Z,59.61
2022-08-28T21:22:42.242Z,59.50
2022-08-28T21:25:11.359Z,59.97
2022-08-28T21:27:39.334Z,59.94
2022-08-28T21:30:09.605Z,60.22
2022-08-28T21:32:37.510Z,60.32
2022-08-28T21:35:10.915Z,60.71
2022-08-28T21:37:41.334Z,60.87
2022-08-28T21:40:15.428Z,61.34
2022-08-28T21:42:43.748Z,61.43
2022-08-28T21:45:12.563Z,61.75
2022-08-28T21:47:42.175Z,62.04
2022-08-28T21:50:11.472Z,62.11
2022-08-28T21:52:40.547Z,62.50
2022-08-28T21:55:13.370Z,62.73
2022-08-28T21:57:41.356Z,62.65
2022-08-28T22:00:15.807Z,62.80
2022-08-28T22:02:44.075Z,62.78
2022-08-28T22:05:11.777Z,62.81
2022-08-28T22:07:40.343Z,63.41
2022-08-28T22:10:09.411Z,63.75
2022-08-28T22:12:36.946Z,64.12
2022-08-28T22:15:05.344Z,64.18
2022-08-28T22:17:32.798Z,64.32
2022-08-28T22:20:00.267Z,64.62
2022-08-28T22:22:46.411Z,64.62
2022-08-28T22:25:14.363Z,64.93
2022-08-28T22:27:41.775Z,64.92
2022-08-28T22:30:10.063Z,65.26
2022-08-28T22:32:37.485Z,65.77
2022-08-28T22:35:05.864Z,65.96
2022-08-28T22:37:35.789Z,65.84
2022-08-28T22:40:09.369Z,66.16
2022-08-28T22:42:42.519Z,67.01
2022-08-28T22:45:10.736Z,66.69
2022-08-28T22:47:38.486Z,67.02
2022-08-28T22:50:07.484Z,66.99
2022-08-28T22:52:35.157Z,67.53
2022-08-28T22:55:03.705Z,67.42
2022-08-28T22:57:34.091Z,66.17
2022-08-28T23:00:03.666Z,66.79
2022-08-28T23:02:31.251Z,67.66
2022-08-28T23:04:58.815Z,67.64
2022-08-28T23:07:26.318Z,67.84
2022-08-28T23:09:53.780Z,68.30
2022-08-28T23:12:21.258Z,69.03
2022-08-28T23:14:48.975Z,68.94
2022-08-28T23:17:18.719Z,68.82
2022-08-28T23:19:48.060Z,69.41
2022-08-28T23:22:16.113Z,69.11
2022-08-28T23:24:46.163Z,68.96
2022-08-28T23:27:34.865Z,69.21
2022-08-28T23:30:01.087Z,69.97
2022-08-28T23:32:28.608Z,70.15
2022-08-28T23:34:56.000Z,69.35
2022-08-28T23:37:23.490Z,69.63
2022-08-28T23:39:50.913Z,69.27
2022-08-28T23:42:18.456Z,70.38
2022-08-28T23:44:47.254Z,70.54
2022-08-28T23:47:14.976Z,70.60
2022-08-28T23:49:43.046Z,70.24
2022-08-28T23:52:10.540Z,70.13
2022-08-28T23:54:39.883Z,70.49
2022-08-28T23:57:09.022Z,70.99
2022-08-28T23:59:39.577Z,70.96
